Latest Weather Observations for Goulburn Airport

IDN60801

Issued at 5:32 am EDT Tuesday 24 October 2017 (issued every 30 minutes, with the page automatically refreshed every 10 minutes)

About weather observations | Map of weather stations | Latest weather observations for NSW | Other Formats
Station Details ID: 070330 Name: GOULBURN AIRPORT AWS Lat: -34.81 Lon: 149.73 Height: 640.0 m
Data from the previous 72 hours. | See also: Recent months at Goulburn Airport
Date/Time
EDT
Temp
°C
App
Temp
°C
Dew
Point
°C
Rel
Hum
%
Delta-T
°C
Wind Press
QNH
hPa
Press
MSL
hPa
Rain since
9am
mm
Dir  Spd
km/h
Gust
km/h
Spd
kts
Gust
kts
24/05:30am 3.2 1.7 2.8 97 0.2 CALM 0 0 0 0 1018.8 1018.1 0.2
24/05:00am 3.9 2.5 3.5 97 0.2 CALM 0 0 0 0 1018.8 1018.1 0.2
24/04:35am 3.6 2.1 3.0 96 0.3 CALM 0 0 0 0 1018.6 1017.9 0.2
24/04:30am 3.7 2.2 3.1 96 0.3 CALM 0 0 0 0 1018.5 1017.7 0.2
24/04:00am 4.3 3.0 3.9 97 0.2 CALM 0 0 0 0 1018.5 1017.7 0.2
24/03:40am 4.4 3.0 3.7 95 0.3 CALM 0 0 0 0 1018.5 1017.7 0.2
24/03:30am 4.3 2.9 3.4 94 0.4 CALM 0 0 0 0 1018.5 1017.7 0.2
24/03:26am 4.5 3.1 3.6 94 0.4 CALM 0 0 0 0 1018.5 1017.7 0.2
24/03:00am 5.1 3.9 4.5 96 0.3 CALM 0 0 0 0 1018.8 1018.1 0.2
24/02:38am 5.5 4.4 4.9 96 0.3 CALM 0 0 0 0 1019.0 1018.3 0.2
24/02:30am 5.5 4.3 4.8 95 0.3 CALM 0 0 0 0 1019.1 1018.4 0.2
24/02:00am 6.1 5.0 5.2 94 0.4 CALM 0 0 0 0 1019.1 1018.4 0.2
24/01:30am 6.1 5.0 5.1 93 0.5 CALM 0 0 0 0 1019.2 1018.5 0.2
24/01:00am 7.0 4.6 5.3 89 0.8 SW 7 11 4 6 1019.3 1018.6 0.2
24/12:30am 8.0 6.1 6.8 92 0.6 SSW 6 7 3 4 1019.4 1018.7 0.2
24/12:00am 8.1 6.1 6.4 89 0.8 WSW 6 9 3 5 1019.4 1018.7 0.2
 
Date/Time
EDT
Temp
°C
App
Temp
°C
Dew
Point
°C
Rel
Hum
%
Delta-T
°C
Wind Press
QNH
hPa
Press
MSL
hPa
Rain since
9am
mm
Dir  Spd
km/h
Gust
km/h
Spd
kts
Gust
kts
23/11:30pm 10.7 10.3 8.1 84 1.3 CALM 0 2 0 1 1019.3 1018.6 0.2
23/11:00pm 12.2 10.7 9.0 81 1.7 NNE 7 11 4 6 1019.3 1018.6 0.2
23/10:30pm 11.5 9.8 8.4 81 1.6 NNE 7 9 4 5 1019.1 1018.4 0.2
23/10:00pm 12.5 10.8 8.4 76 2.1 NNE 7 13 4 7 1018.8 1018.1 0.2
23/09:30pm 12.0 10.0 6.9 71 2.5 N 7 11 4 6 1018.7 1018.0 0.2
23/09:00pm 11.4 10.6 6.3 71 2.5 CALM 0 0 0 0 1018.4 1017.6 0.2
23/08:30pm 12.0 11.3 6.9 71 2.5 CALM 0 0 0 0 1018.0 1017.3 0.2
23/08:00pm 13.1 10.4 5.8 61 3.6 ESE 9 11 5 6 1017.6 1016.9 0.2
23/07:30pm 14.1 11.3 6.9 62 3.6 SSW 11 11 6 6 1017.6 1016.9 0.2
23/07:00pm 17.5 15.4 3.8 40 6.6 ESE 4 11 2 6 1017.2 1016.5 0.2
23/06:30pm 19.0 16.6 2.0 32 8.0 S 4 6 2 3 1016.9 1016.1 0.2
23/06:00pm 19.7 16.7 2.1 31 8.4 SW 7 11 4 6 1016.8 1016.0 0.2
23/05:30pm 20.2 17.7 1.6 29 8.8 WSW 4 9 2 5 1016.8 1016.0 0.2
23/05:00pm 20.1 17.3 3.3 33 8.2 NW 7 15 4 8 1016.6 1015.8 0.2
23/04:30pm 19.4 16.8 4.0 36 7.6 S 7 13 4 7 1016.6 1015.8 0.2
23/04:00pm 19.1 15.9 3.3 35 7.7 SW 9 13 5 7 1016.8 1016.0 0.2
23/03:30pm 18.4 15.1 2.3 34 7.6 SSW 9 13 5 7 1017.0 1016.2 0.2
23/03:00pm 18.1 15.2 2.8 36 7.3 WNW 7 13 4 7 1017.4 1016.7 0.2
23/02:30pm 18.2 16.5 5.8 44 6.3 S 4 11 2 6 1017.7 1017.0 0.2
23/02:00pm 17.2 14.3 4.9 44 6.1 SSW 9 17 5 9 1018.1 1017.4 0.2
23/01:30pm 17.0 14.0 6.2 49 5.5 W 11 17 6 9 1018.1 1017.4 0.2
23/01:00pm 16.9 14.5 7.0 52 5.1 NE 9 19 5 10 1018.4 1017.6 0.2
23/12:30pm 15.4 13.4 6.2 54 4.6 WSW 6 9 3 5 1018.7 1018.0 0.2
23/12:00pm 15.1 13.0 6.7 57 4.2 NE 7 15 4 8 1018.9 1018.2 0.2
23/11:30am 14.0 12.0 7.1 63 3.5 ESE 7 13 4 7 1019.2 1018.5 0.0
23/11:00am 13.8 11.6 8.0 68 3.0 SE 9 15 5 8 1019.4 1018.7 0.0
23/10:30am 12.6 11.4 8.1 74 2.3 E 4 9 2 5 1019.5 1018.8 0.0
23/10:22am 11.6 9.9 7.7 77 2.0 ESE 6 7 3 4 1019.5 1018.8 0.0
23/10:00am 10.5 9.5 8.8 89 0.9 NNW 4 9 2 5 1019.5 1018.8 0.0
23/09:30am 8.9 7.9 8.8 99 0.1 NNE 4 7 2 4 1019.5 1018.8 0.0
23/09:26am 8.9 7.9 8.8 99 0.1 NNE 4 7 2 4 1019.5 1018.8 0.0
23/09:00am 8.1 7.3 8.0 99 0.0 ESE 2 6 1 3 1019.2 1018.5 13.0
23/08:30am 7.3 5.5 7.2 99 0.0 N 6 9 3 5 1019.0 1018.3 13.0
23/08:00am 6.8 5.7 6.7 99 0.0 NW 2 6 1 3 1018.6 1017.9 13.0
23/07:30am 6.1 5.2 6.0 99 0.0 CALM 0 0 0 0 1018.4 1017.6 13.0
23/07:00am 5.5 4.5 5.4 99 0.0 CALM 0 6 0 3 1018.0 1017.3 13.0
23/06:30am 5.5 4.5 5.4 99 0.0 CALM 0 7 0 4 1017.7 1017.0 13.0
23/06:00am 5.3 4.2 5.2 99 0.0 CALM 0 0 0 0 1017.4 1016.7 13.0
23/05:30am 5.2 2.8 5.1 99 0.0 N 7 9 4 5 1017.2 1016.5 13.0
23/05:00am 4.6 3.4 4.5 99 0.0 CALM 0 0 0 0 1017.1 1016.3 13.0
23/04:30am 4.3 2.6 4.0 98 0.1 SSE 2 6 1 3 1017.0 1016.2 13.0
23/04:00am 4.2 1.7 3.8 97 0.2 SSE 6 7 3 4 1016.9 1016.1 13.0
23/03:47am 4.1 1.6 3.7 97 0.2 S 6 6 3 3 1017.0 1016.2 13.0
23/03:43am 4.4 1.9 3.8 96 0.3 S 6 6 3 3 1017.0 1016.2 13.0
23/03:30am 4.9 3.3 4.3 96 0.3 S 2 6 1 3 1017.0 1016.2 13.0
23/03:11am 5.1 2.7 4.5 96 0.3 S 6 7 3 4 1017.0 1016.2 13.0
23/03:00am 5.8 4.4 5.4 97 0.2 S 2 7 1 4 1017.0 1016.2 13.0
23/02:48am 6.0 5.0 5.6 97 0.2 CALM 0 0 0 0 1017.1 1016.3 13.0
23/02:30am 6.2 5.2 5.5 95 0.3 CALM 0 0 0 0 1017.1 1016.3 13.0
23/02:00am 6.9 6.0 6.2 95 0.3 CALM 0 0 0 0 1017.3 1016.6 13.0
23/01:30am 7.9 6.9 7.5 97 0.2 S 2 6 1 3 1017.3 1016.6 12.8
23/01:00am 7.2 6.4 6.5 95 0.3 CALM 0 0 0 0 1017.4 1016.7 12.8
23/12:30am 7.1 4.5 6.0 93 0.5 S 9 13 5 7 1017.6 1016.9 12.8
23/12:00am 8.5 7.7 6.6 88 0.9 CALM 0 0 0 0 1017.5 1016.8 12.8
 
Date/Time
EDT
Temp
°C
App
Temp
°C
Dew
Point
°C
Rel
Hum
%
Delta-T
°C
Wind Press
QNH
hPa
Press
MSL
hPa
Rain since
9am
mm
Dir  Spd
km/h
Gust
km/h
Spd
kts
Gust
kts
22/11:30pm 9.5 8.5 7.4 87 1.0 ENE 2 7 1 4 1017.6 1016.9 12.8
22/11:00pm 9.5 8.6 7.8 89 0.8 E 2 7 1 4 1017.5 1016.8 12.8
22/10:30pm 9.6 8.4 7.9 89 0.8 ESE 4 7 2 4 1017.3 1016.6 12.8
22/10:00pm 9.4 8.9 7.8 90 0.8 CALM 0 0 0 0 1017.3 1016.6 12.8
22/09:30pm 9.3 7.5 7.9 91 0.7 ESE 7 11 4 6 1017.2 1016.5 12.8
22/09:00pm 9.3 7.1 7.9 91 0.7 SE 9 11 5 6 1016.8 1016.0 12.8
22/08:43pm 9.5 6.9 7.9 90 0.8 E 11 15 6 8 1016.4 1015.7 12.8
22/08:30pm 9.7 8.1 8.6 93 0.6 E 7 13 4 7 1016.3 1015.6 12.8
22/08:13pm 10.4 8.6 9.6 95 0.4 NE 9 17 5 9 1016.2 1015.5 12.6
22/08:05pm 10.4 8.2 9.5 94 0.5 ENE 11 17 6 9 1016.0 1015.3 12.6
22/08:00pm 10.4 8.6 9.6 95 0.4 ENE 9 15 5 8 1016.0 1015.3 12.6
22/07:51pm 10.4 9.1 9.8 96 0.3 ENE 7 13 4 7 1015.8 1015.1 12.6
22/07:46pm 10.4 8.7 9.8 96 0.3 E 9 17 5 9 1015.7 1014.9 12.6
22/07:30pm 10.4 6.2 9.9 97 0.3 ESE 22 28 12 15 1015.2 1014.4 12.4
22/07:28pm 10.4 5.9 9.9 97 0.3 ESE 24 32 13 17 1015.2 1014.4 12.2
22/07:08pm 10.4 7.2 10.1 98 0.2 SSE 17 26 9 14 1015.3 1014.5 10.8
22/07:00pm 10.6 7.5 10.3 98 0.2 SSE 17 22 9 12 1015.2 1014.4 10.4
22/06:30pm 9.1 3.6 7.5 90 0.8 S 26 33 14 18 1014.7 1014.0 5.4
22/06:24pm 11.2 6.6 9.6 90 0.8 SSE 24 30 13 16 1014.5 1013.8 3.0
22/06:00pm 12.8 8.1 9.4 80 1.8 E 24 32 13 17 1013.1 1012.4 0.0
22/05:30pm 14.4 10.2 8.4 67 3.1 E 20 26 11 14 1012.9 1012.1 0.0
22/05:00pm 15.2 10.9 8.0 62 3.7 E 20 26 11 14 1012.6 1011.8 0.0
22/04:30pm 17.1 13.4 2.3 37 6.9 ESE 11 15 6 8 1012.3 1011.5 0.0
22/04:00pm 17.1 13.0 2.3 37 6.9 SSE 13 17 7 9 1012.3 1011.5 0.0
22/03:30pm 16.8 12.0 2.4 38 6.7 SSW 17 24 9 13 1012.6 1011.8 0.0
22/03:00pm 18.3 14.2 2.2 34 7.6 WSW 13 22 7 12 1012.6 1011.8 0.0
22/02:30pm 17.2 11.9 1.6 35 7.2 WSW 19 28 10 15 1012.9 1012.1 0.0
22/02:00pm 17.3 13.6 2.5 37 7.0 W 11 20 6 11 1013.3 1012.5 0.0
22/01:30pm 17.9 14.2 2.6 36 7.3 WSW 11 19 6 10 1013.6 1012.8 0.0
22/01:00pm 16.9 13.0 1.4 35 7.1 SW 11 19 6 10 1014.0 1013.2 0.0
22/12:30pm 15.8 11.6 3.9 45 5.7 SW 15 20 8 11 1014.2 1013.4 0.0
22/12:00pm 16.0 13.4 4.1 45 5.7 WNW 7 15 4 8 1014.3 1013.5 0.0
22/11:30am 15.9 13.7 6.3 53 4.8 SSW 7 17 4 9 1014.4 1013.6 0.0
22/11:00am 14.9 12.0 6.7 58 4.1 SW 11 17 6 9 1014.9 1014.1 0.0
22/10:30am 13.5 11.7 7.1 65 3.2 SE 6 11 3 6 1015.1 1014.3 0.0
22/10:23am 13.5 11.7 7.3 66 3.1 S 6 13 3 7 1015.1 1014.3 0.0
22/10:00am 12.5 9.9 7.8 73 2.4 SSE 11 15 6 8 1015.4 1014.6 0.0
22/09:53am 12.5 10.2 7.6 72 2.5 SSE 9 15 5 8 1015.4 1014.6 0.0
22/09:51am 12.4 10.5 7.7 73 2.4 S 7 15 4 8 1015.4 1014.6 0.0
22/09:30am 12.1 10.4 7.4 73 2.4 S 6 11 3 6 1015.5 1014.7 0.0
22/09:27am 12.2 11.3 7.7 74 2.3 S 2 9 1 5 1015.5 1014.7 0.0
22/09:02am 11.8 10.1 7.5 75 2.2 SSE 6 9 3 5 1015.7 1014.9 0.0
22/09:00am 11.6 9.8 7.1 74 2.2 SSE 6 9 3 5 1015.7 1014.9 0.0
22/08:31am 11.7 10.5 8.0 78 1.9 N 4 7 2 4 1015.5 1014.7 0.0
22/08:30am 11.4 10.1 7.5 77 2.0 N 4 7 2 4 1015.5 1014.7 0.0
22/08:25am 11.6 10.4 8.1 79 1.8 NNE 4 9 2 5 1015.5 1014.7 0.0
22/08:00am 10.8 9.1 8.2 84 1.3 NNE 7 9 4 5 1015.3 1014.5 0.0
22/07:30am 10.2 8.0 8.0 86 1.1 ENE 9 11 5 6 1015.2 1014.4 0.0
22/07:00am 10.0 7.9 8.1 88 1.0 ENE 9 11 5 6 1015.0 1014.2 0.0
22/06:30am 9.7 7.9 7.8 88 0.9 E 7 9 4 5 1014.9 1014.1 0.0
22/06:00am 9.6 7.7 7.7 88 0.9 NE 7 9 4 5 1014.6 1013.9 0.0
22/05:30am 9.7 7.8 7.6 87 1.0 ENE 7 11 4 6 1014.7 1014.0 0.0
22/05:00am 9.7 7.8 7.5 86 1.1 ENE 7 11 4 6 1015.0 1014.2 0.0
22/04:33am 9.8 7.5 7.6 86 1.1 E 9 11 5 6 1015.1 1014.3 0.0
22/04:30am 9.8 7.5 7.6 86 1.1 E 9 11 5 6 1015.1 1014.3 0.0
22/04:00am 9.8 7.2 7.6 86 1.1 ENE 11 15 6 8 1015.2 1014.4 0.0
22/03:30am 9.8 7.5 7.4 85 1.2 E 9 13 5 7 1015.4 1014.6 0.0
22/03:00am 9.7 7.0 7.3 85 1.2 ENE 11 15 6 8 1015.6 1014.8 0.0
22/02:33am 9.8 6.7 7.2 84 1.3 ENE 13 17 7 9 1015.9 1015.2 0.0
22/02:30am 9.8 6.7 7.2 84 1.3 ENE 13 17 7 9 1016.0 1015.3 0.0
22/02:00am 9.8 7.1 7.2 84 1.3 ENE 11 13 6 7 1016.3 1015.6 0.0
22/01:30am 9.9 6.8 7.2 83 1.3 ENE 13 15 7 8 1016.7 1015.9 0.0
22/01:00am 9.8 6.7 7.2 84 1.3 ENE 13 17 7 9 1017.1 1016.3 0.0
22/12:30am 9.9 6.8 7.3 84 1.3 E 13 17 7 9 1017.4 1016.7 0.0
22/12:00am 9.9 7.2 7.3 84 1.3 ENE 11 17 6 9 1017.7 1017.0 0.0
 
Date/Time
EDT
Temp
°C
App
Temp
°C
Dew
Point
°C
Rel
Hum
%
Delta-T
°C
Wind Press
QNH
hPa
Press
MSL
hPa
Rain since
9am
mm
Dir  Spd
km/h
Gust
km/h
Spd
kts
Gust
kts
21/11:30pm 9.4 7.1 7.5 88 0.9 ESE 9 11 5 6 1017.9 1017.2 0.0
21/11:00pm 9.2 6.5 7.2 87 1.0 ESE 11 13 6 7 1018.1 1017.4 0.0
21/10:30pm 8.7 6.3 6.8 88 0.9 ESE 9 13 5 7 1018.4 1017.6 0.0
21/10:11pm 8.5 5.9 6.3 86 1.0 ESE 9 15 5 8 1018.4 1017.6 0.0
21/10:00pm 8.7 5.4 6.3 85 1.1 ESE 13 20 7 11 1018.5 1017.7 0.0
21/09:30pm 9.5 5.5 6.6 82 1.4 SE 17 22 9 12 1018.5 1017.7 0.0
21/09:00pm 10.8 7.5 6.4 74 2.1 SE 13 17 7 9 1018.0 1017.3 0.0
21/08:30pm 12.9 8.8 6.3 64 3.3 ENE 17 20 9 11 1017.4 1016.7 0.0
21/08:00pm 13.6 12.2 7.2 65 3.2 WNW 4 6 2 3 1017.1 1016.3 0.0
21/07:30pm 14.2 11.4 5.0 54 4.5 WNW 9 11 5 6 1017.0 1016.2 0.0
21/07:00pm 16.1 13.4 3.5 43 6.0 NW 7 11 4 6 1016.9 1016.1 0.0
21/06:30pm 17.6 14.8 2.0 35 7.3 NW 6 11 3 6 1016.8 1016.0 0.0
21/06:00pm 17.7 14.5 2.8 37 7.1 SSW 9 11 5 6 1016.8 1016.0 0.0
21/05:30pm 18.1 15.2 2.4 35 7.4 NNW 7 11 4 6 1017.1 1016.3 0.0
21/05:00pm 17.7 15.0 2.5 36 7.2 W 6 9 3 5 1017.3 1016.6 0.0
21/04:30pm 18.1 14.9 3.2 37 7.2 S 9 19 5 10 1017.5 1016.8 0.0
21/04:00pm 17.3 14.4 2.5 37 7.0 S 7 11 4 6 1017.8 1017.1 0.0
21/03:30pm 17.6 15.4 5.2 44 6.2 NE 6 11 3 6 1018.3 1017.5 0.0
21/03:00pm 17.1 13.7 3.8 41 6.4 SSE 11 17 6 9 1018.8 1018.1 0.0
21/02:30pm 16.3 12.1 4.0 44 5.9 NNE 15 20 8 11 1019.4 1018.7 0.0
21/02:00pm 16.4 12.7 4.4 45 5.8 NNW 13 17 7 9 1019.6 1018.9 0.0
21/01:30pm 15.2 11.6 3.0 44 5.7 NNW 11 19 6 10 1020.2 1019.5 0.0
21/01:00pm 15.7 12.8 4.4 47 5.4 SE 9 19 5 10 1020.6 1019.9 0.0
21/12:30pm 15.2 12.7 4.6 49 5.1 SSW 7 15 4 8 1021.0 1020.3 0.0
21/12:00pm 13.8 10.7 3.6 50 4.8 ENE 9 19 5 10 1021.6 1020.9 0.0
21/11:30am 13.3 9.7 2.8 49 4.8 E 11 20 6 11 1022.0 1021.3 0.0
21/11:00am 12.1 8.1 2.6 52 4.3 NE 13 20 7 11 1022.1 1021.4 0.0
21/10:30am 11.9 8.2 2.6 53 4.2 E 11 17 6 9 1022.5 1021.8 0.0
21/10:00am 11.7 7.7 2.7 54 4.0 E 13 20 7 11 1022.6 1022.0 0.0
21/09:30am 11.0 6.7 1.3 51 4.2 SE 13 24 7 13 1022.7 1022.1 0.0
21/09:00am 9.7 5.6 2.3 60 3.2 SSE 13 17 7 9 1022.7 1022.1 0.0
21/08:30am 9.2 6.4 3.2 66 2.7 SSE 7 13 4 7 1022.7 1022.1 0.0
21/08:00am 8.1 5.4 3.9 75 1.9 ESE 7 11 4 6 1022.8 1022.2 0.0
21/07:30am 6.9 5.3 4.7 86 1.0 ESE 2 6 1 3 1023.0 1022.4 0.0
21/07:00am 3.9 2.5 3.3 96 0.3 CALM 0 0 0 0 1022.9 1022.3 0.0
21/06:30am 2.5 -0.6 1.3 92 0.5 ESE 7 9 4 5 1022.8 1022.2 0.0
21/06:00am 3.3 0.5 1.8 90 0.6 SE 6 7 3 4 1022.8 1022.2 0.0

Other Formats:

Comma delimited format used in spreadsheet applications
http://www.bom.gov.au/fwo/IDN60801/IDN60801.95716.axf

JavaScript Object Notation format (JSON) in row-major order
http://www.bom.gov.au/fwo/IDN60801/IDN60801.95716.json